Time;durP1;ratioP1;P1;durP2;ratioP2;P2;SDS_P1;SDS_P2;PMS_P1;PMS_P2;Temp;Humidity;BMP_temperature;BMP_pressure;BME280_temperature;BME280_humidity;BME280_pressure;Samples;Min_cycle;Max_cycle;Signal;HPM_P1;HPM_P2
2023/10/07 00:01:26;;;;;;;8.82;3.80;;;18.30;99.90;;;;;;10458789;28;20558;-43
2023/10/07 00:06:28;;;;;;;8.95;3.22;;;18.70;99.90;;;;;;10448526;28;20044;-43
2023/10/07 00:11:31;;;;;;;18.60;3.40;;;18.90;99.90;;;;;;10456658;28;20080;-32
2023/10/07 00:16:36;;;;;;;18.13;3.63;;;18.70;99.90;;;;;;10454981;28;20057;-31
2023/10/07 00:21:55;;;;;;;8.52;2.47;;;18.50;99.90;;;;;;10451984;28;20095;-36
2023/10/07 00:26:59;;;;;;;9.73;3.25;;;18.60;99.90;;;;;;10453079;28;20474;-31
2023/10/07 00:32:04;;;;;;;18.35;3.72;;;18.50;99.90;;;;;;10461309;28;20088;-33
2023/10/07 00:37:07;;;;;;;11.77;3.35;;;18.50;99.90;;;;;;10458714;28;20402;-33
2023/10/07 00:42:10;;;;;;;;;;;18.80;99.90;;;;;;10451182;28;20572;-38
2023/10/07 00:47:13;;;;;;;8.52;3.00;;;18.70;99.90;;;;;;10447495;28;19920;-34
2023/10/07 00:52:27;;;;;;;10.80;3.55;;;18.70;99.90;;;;;;10449620;28;20079;-39
2023/10/07 00:57:35;;;;;;;9.30;3.28;;;18.90;99.90;;;;;;10448029;28;20148;-40
2023/10/07 01:02:39;;;;;;;13.80;4.00;;;18.60;99.90;;;;;;10450657;28;20060;-42
2023/10/07 01:07:41;;;;;;;19.42;3.25;;;18.60;99.90;;;;;;10449693;28;20056;-40
2023/10/07 01:12:43;;;;;;;8.60;3.03;;;18.70;99.90;;;;;;10457270;28;20057;-35
2023/10/07 01:17:47;;;;;;;17.67;3.60;;;18.70;99.90;;;;;;10443277;28;20059;-35
2023/10/07 01:23:02;;;;;;;15.68;3.38;;;18.70;99.90;;;;;;10449681;28;20056;-45
2023/10/07 01:28:07;;;;;;;16.33;3.85;;;18.80;99.90;;;;;;10448166;28;20473;-34
2023/10/07 01:33:24;;;;;;;11.95;3.42;;;18.50;99.90;;;;;;10450541;28;20051;-37
2023/10/07 01:38:31;;;;;;;14.68;3.25;;;18.60;99.90;;;;;;10449436;28;20049;-35
2023/10/07 01:43:39;;;;;;;17.67;3.08;;;18.60;99.90;;;;;;10450421;28;20555;-34
2023/10/07 01:48:55;;;;;;;10.75;3.67;;;19.00;99.90;;;;;;10452390;28;20051;-41
2023/10/07 01:54:02;;;;;;;16.92;3.50;;;18.70;99.90;;;;;;10456332;28;20052;-32
2023/10/07 01:59:17;;;;;;;26.98;5.07;;;18.60;99.90;;;;;;10453103;28;20052;-31
2023/10/07 02:04:26;;;;;;;9.80;3.03;;;18.30;99.90;;;;;;10454179;28;20053;-41
2023/10/07 02:09:35;;;;;;;12.98;3.28;;;18.50;99.90;;;;;;10451879;28;20049;-39
2023/10/07 02:14:38;;;;;;;19.50;4.22;;;18.50;99.90;;;;;;10447439;28;20766;-31
2023/10/07 02:19:41;;;;;;;15.73;3.20;;;18.50;99.90;;;;;;10448473;28;20597;-33
2023/10/07 02:24:44;;;;;;;10.98;3.47;;;18.40;99.90;;;;;;10457801;28;20052;-44
2023/10/07 02:29:48;;;;;;;14.20;3.22;;;18.50;99.90;;;;;;10446010;28;20045;-32
2023/10/07 02:34:54;;;;;;;16.30;3.58;;;18.50;99.90;;;;;;10451255;28;20095;-33
2023/10/07 02:40:03;;;;;;;16.65;4.25;;;18.40;99.90;;;;;;10454779;28;20463;-31
2023/10/07 02:45:19;;;;;;;12.93;3.10;;;18.70;99.90;;;;;;10450324;28;20518;-32
2023/10/07 02:50:25;;;;;;;10.13;2.80;;;18.50;99.90;;;;;;10450241;28;20045;-34
2023/10/07 02:55:38;;;;;;;26.27;4.30;;;18.70;99.90;;;;;;10450287;28;20040;-32
2023/10/07 03:15:40;;;;;;;12.57;3.72;;;18.50;99.90;;;;;;10550761;27;1227271;-42
2023/10/07 03:20:58;;;;;;;15.65;3.35;;;18.50;99.90;;;;;;10563619;28;20051;-45
2023/10/07 03:26:06;;;;;;;13.20;4.38;;;18.80;99.90;;;;;;10556804;28;20443;-29
2023/10/07 03:31:10;;;;;;;15.77;3.95;;;18.60;99.90;;;;;;10566826;28;20047;-32
2023/10/07 03:36:30;;;;;;;17.95;3.33;;;18.60;99.90;;;;;;10574995;28;20499;-36
2023/10/07 03:41:35;;;;;;;24.60;3.45;;;18.60;99.90;;;;;;10561579;28;20120;-34
2023/10/07 03:46:40;;;;;;;14.38;3.35;;;18.60;99.90;;;;;;10568472;28;20052;-31
2023/10/07 03:51:42;;;;;;;20.15;4.57;;;18.70;99.90;;;;;;10545646;28;20125;-35
2023/10/07 03:56:47;;;;;;;9.38;3.22;;;18.20;99.90;;;;;;10558744;28;20491;-37
2023/10/07 04:01:53;;;;;;;11.02;2.67;;;18.40;99.90;;;;;;10565290;28;20048;-37
2023/10/07 04:07:00;;;;;;;14.18;3.28;;;18.50;99.90;;;;;;10548381;28;20477;-30
2023/10/07 04:12:02;;;;;;;11.38;2.95;;;18.40;99.90;;;;;;10573355;28;20404;-32
2023/10/07 04:17:11;;;;;;;7.93;2.60;;;18.30;99.90;;;;;;10545172;28;20048;-36
2023/10/07 04:22:13;;;;;;;13.23;3.03;;;18.60;99.90;;;;;;10550081;28;20039;-35
2023/10/07 04:27:20;;;;;;;10.00;2.37;;;18.70;99.90;;;;;;10526427;28;20067;-31
2023/10/07 04:32:23;;;;;;;11.27;3.10;;;18.80;99.90;;;;;;10529548;28;20044;-37
2023/10/07 04:37:30;;;;;;;11.60;2.95;;;18.90;99.90;;;;;;10517161;28;20055;-31
2023/10/07 04:42:39;;;;;;;13.18;2.95;;;18.40;99.90;;;;;;10507455;28;20063;-33
2023/10/07 04:47:46;;;;;;;16.40;2.90;;;19.10;99.90;;;;;;10518937;28;20055;-37
2023/10/07 04:52:51;;;;;;;11.95;3.03;;;18.50;99.90;;;;;;10532541;28;20052;-30
2023/10/07 04:57:59;;;;;;;13.00;3.28;;;18.80;99.90;;;;;;10534380;28;20039;-31
2023/10/07 05:03:08;;;;;;;12.57;3.22;;;18.40;99.90;;;;;;10523655;28;20040;-35
2023/10/07 05:08:11;;;;;;;19.50;3.15;;;18.70;99.90;;;;;;10536033;28;20048;-33
2023/10/07 05:13:13;;;;;;;20.55;4.10;;;18.40;99.90;;;;;;10517907;28;20044;-35
2023/10/07 05:18:17;;;;;;;16.52;3.25;;;18.30;99.90;;;;;;10532977;28;20150;-34
2023/10/07 05:23:19;;;;;;;16.27;3.72;;;18.30;99.90;;;;;;10538300;28;20435;-35
2023/10/07 05:28:22;;;;;;;12.45;3.03;;;18.50;99.90;;;;;;10540178;28;20134;-31
2023/10/07 05:33:26;;;;;;;16.23;3.63;;;18.50;99.90;;;;;;10537367;28;20460;-37
2023/10/07 05:38:28;;;;;;;17.55;3.17;;;18.30;99.90;;;;;;10530033;28;20055;-34
2023/10/07 05:43:31;;;;;;;14.18;3.20;;;18.20;99.90;;;;;;10530996;28;20129;-32
2023/10/07 05:48:37;;;;;;;19.58;3.63;;;18.60;99.90;;;;;;10516784;28;20054;-40
2023/10/07 05:53:40;;;;;;;12.40;3.13;;;18.00;99.90;;;;;;10527236;28;20095;-33
2023/10/07 05:58:43;;;;;;;10.32;2.55;;;18.70;99.90;;;;;;10525015;28;20192;-32
2023/10/07 06:03:47;;;;;;;19.58;4.93;;;18.20;99.90;;;;;;10517498;28;20098;-37
2023/10/07 06:08:48;;;;;;;16.08;3.50;;;18.10;99.90;;;;;;10529464;28;20044;-31
2023/10/07 06:13:51;;;;;;;19.13;4.25;;;18.10;99.90;;;;;;10527347;28;20084;-33
2023/10/07 06:18:56;;;;;;;11.77;3.55;;;18.20;99.90;;;;;;10523612;28;20040;-41
2023/10/07 06:23:59;;;;;;;21.98;4.82;;;18.80;99.90;;;;;;10526854;28;20120;-36
2023/10/07 06:29:06;;;;;;;9.55;3.10;;;18.20;99.90;;;;;;10525056;28;20053;-33
2023/10/07 06:34:12;;;;;;;11.45;3.05;;;18.60;99.90;;;;;;10505893;28;20055;-34
2023/10/07 06:39:14;;;;;;;16.70;3.55;;;18.50;99.90;;;;;;10519743;28;20456;-39
2023/10/07 06:44:15;;;;;;;15.43;3.77;;;18.50;99.90;;;;;;10531935;28;20477;-35
2023/10/07 06:49:18;;;;;;;30.90;6.20;;;18.50;99.90;;;;;;10520093;28;20543;-33
2023/10/07 06:54:21;;;;;;;14.82;3.70;;;18.10;99.90;;;;;;10510303;28;20522;-43
2023/10/07 06:59:27;;;;;;;24.50;4.53;;;18.30;99.90;;;;;;10517158;28;20525;-40
2023/10/07 07:04:30;;;;;;;21.27;4.07;;;18.30;99.90;;;;;;10533455;28;20578;-43
2023/10/07 07:15:05;;;;;;;19.65;3.60;;;18.20;99.90;;;;;;10453997;28;20357;-32
2023/10/07 07:25:39;;;;;;;17.38;4.05;;;18.10;99.90;;;;;;10488137;28;20405;-40
2023/10/07 07:30:43;;;;;;;14.50;3.97;;;18.40;99.90;;;;;;10513418;28;20124;-40
2023/10/07 07:35:51;;;;;;;23.95;4.53;;;18.30;99.90;;;;;;10516614;28;20420;-36
2023/10/07 07:41:03;;;;;;;22.15;4.20;;;18.40;99.90;;;;;;10510372;28;20044;-36
2023/10/07 07:46:28;;;;;;;21.30;3.97;;;18.30;99.90;;;;;;10516684;28;20065;-38
2023/10/07 07:51:37;;;;;;;17.38;3.53;;;18.90;99.90;;;;;;10514199;28;20476;-32
2023/10/07 07:56:42;;;;;;;23.80;3.45;;;18.60;99.90;;;;;;10516670;28;20064;-37
2023/10/07 08:01:46;;;;;;;23.98;4.25;;;18.90;99.90;;;;;;10518978;28;20052;-40
2023/10/07 08:06:49;;;;;;;20.02;4.97;;;19.00;99.90;;;;;;10528087;28;20055;-34
2023/10/07 08:11:52;;;;;;;16.63;3.95;;;18.70;99.90;;;;;;10515590;28;20150;-33
2023/10/07 08:16:53;;;;;;;21.65;3.78;;;18.70;99.90;;;;;;10521479;28;20040;-39
2023/10/07 08:21:57;;;;;;;22.60;4.20;;;19.10;99.90;;;;;;10507816;28;20055;-28
2023/10/07 08:27:03;;;;;;;18.38;3.95;;;19.20;99.90;;;;;;10522163;28;20076;-36
2023/10/07 08:32:14;;;;;;;17.52;3.95;;;19.00;99.90;;;;;;10527333;28;20055;-29
2023/10/07 08:37:18;;;;;;;17.10;3.97;;;19.20;99.90;;;;;;10526478;28;20052;-31
2023/10/07 08:42:26;;;;;;;15.00;3.03;;;19.40;99.90;;;;;;10515624;28;20538;-38
2023/10/07 08:47:39;;;;;;;30.25;5.20;;;19.20;99.90;;;;;;10523676;28;20076;-40
2023/10/07 08:52:44;;;;;;;17.52;3.65;;;19.00;99.90;;;;;;10519258;28;20542;-35
2023/10/07 08:57:47;;;;;;;21.75;4.38;;;19.30;99.90;;;;;;10522352;28;20127;-40
2023/10/07 09:02:50;;;;;;;19.70;3.58;;;19.60;99.90;;;;;;10511928;28;20047;-37
2023/10/07 09:07:56;;;;;;;21.30;4.75;;;19.50;99.90;;;;;;10543362;28;20048;-31
2023/10/07 09:13:04;;;;;;;23.23;4.57;;;19.10;99.90;;;;;;10524385;28;20064;-38
2023/10/07 09:18:06;;;;;;;26.92;4.65;;;19.30;99.90;;;;;;10522459;28;20097;-31
2023/10/07 09:23:15;;;;;;;22.88;4.88;;;19.20;99.90;;;;;;10528814;28;20117;-35
2023/10/07 09:28:18;;;;;;;26.45;5.63;;;19.90;99.90;;;;;;10505347;28;20055;-29
2023/10/07 09:33:21;;;;;;;15.93;4.28;;;19.60;99.90;;;;;;10526108;28;20047;-34
2023/10/07 09:38:33;;;;;;;15.93;4.03;;;19.60;99.90;;;;;;10520335;28;20105;-31
2023/10/07 09:43:37;;;;;;;14.23;3.67;;;19.70;99.90;;;;;;10513756;28;20050;-32
2023/10/07 09:48:43;;;;;;;11.18;3.17;;;20.10;99.90;;;;;;10521319;28;20044;-39
2023/10/07 09:54:02;;;;;;;10.20;3.22;;;20.10;99.90;;;;;;10521796;28;20105;-34
2023/10/07 09:59:17;;;;;;;16.23;4.18;;;20.00;99.90;;;;;;10516234;28;20144;-32
2023/10/07 10:04:43;;;;;;;16.48;4.10;;;20.00;99.90;;;;;;10528319;28;20062;-36
2023/10/07 10:10:05;;;;;;;11.43;2.83;;;20.40;99.90;;;;;;10525083;28;20420;-41
2023/10/07 10:20:42;;;;;;;19.25;3.70;;;20.20;99.90;;;;;;10506261;28;20052;-42
2023/10/07 10:25:48;;;;;;;14.18;3.42;;;20.00;99.90;;;;;;10526836;28;20075;-41
2023/10/07 10:30:53;;;;;;;16.05;3.13;;;20.30;99.90;;;;;;10520522;28;20094;-41
2023/10/07 10:35:57;;;;;;;10.40;2.80;;;19.60;99.90;;;;;;10515296;28;20485;-31
2023/10/07 10:41:00;;;;;;;13.20;3.40;;;20.00;99.90;;;;;;10507664;28;20052;-35
2023/10/07 10:46:05;;;;;;;15.02;3.35;;;19.80;99.90;;;;;;10516504;28;20044;-34
2023/10/07 10:51:07;;;;;;;15.18;3.22;;;20.30;99.90;;;;;;10519109;28;20048;-30
2023/10/07 10:56:10;;;;;;;;;;;20.10;99.90;;;;;;10516462;28;20091;-36
2023/10/07 11:01:12;;;;;;;15.93;3.53;;;20.30;99.90;;;;;;10514537;28;20432;-35
2023/10/07 11:06:14;;;;;;;10.23;2.97;;;20.30;99.90;;;;;;10518926;28;20460;-44
2023/10/07 11:11:17;;;;;;;12.60;3.65;;;20.40;99.90;;;;;;10521959;28;20650;-35
2023/10/07 11:16:22;;;;;;;19.63;4.25;;;20.60;99.90;;;;;;10519951;28;20087;-43
2023/10/07 11:21:24;;;;;;;17.10;3.70;;;20.00;99.90;;;;;;10519847;28;20055;-34
2023/10/07 11:26:32;;;;;;;9.63;2.80;;;20.30;99.90;;;;;;10519060;28;20040;-41
2023/10/07 11:31:34;;;;;;;13.38;3.60;;;20.90;99.90;;;;;;10517279;28;20051;-35
2023/10/07 11:36:45;;;;;;;15.30;3.97;;;20.40;99.90;;;;;;10521078;28;20051;-40
2023/10/07 11:41:48;;;;;;;14.10;3.30;;;20.70;99.90;;;;;;10531885;28;20048;-35
2023/10/07 11:46:50;;;;;;;13.48;4.35;;;21.10;99.90;;;;;;10527622;28;20452;-35
2023/10/07 11:51:52;;;;;;;12.95;2.95;;;20.70;99.90;;;;;;10530738;28;20417;-39
2023/10/07 11:56:57;;;;;;;14.00;3.15;;;21.10;99.90;;;;;;10525466;28;20050;-40
2023/10/07 12:02:00;;;;;;;9.93;3.15;;;20.80;99.90;;;;;;10528163;28;20048;-38
2023/10/07 12:07:03;;;;;;;20.58;3.90;;;21.40;99.90;;;;;;10548125;28;20047;-34
2023/10/07 12:12:09;;;;;;;12.85;4.13;;;21.20;99.90;;;;;;10531054;28;20083;-31
2023/10/07 12:17:11;;;;;;;17.08;3.80;;;21.30;99.90;;;;;;10518055;28;20239;-42
2023/10/07 12:22:13;;;;;;;14.40;3.65;;;20.90;99.90;;;;;;10520377;28;20139;-35
2023/10/07 12:27:16;;;;;;;11.60;3.63;;;21.10;99.90;;;;;;10521001;28;20041;-45
2023/10/07 12:32:18;;;;;;;17.52;3.92;;;20.70;99.90;;;;;;10522403;28;20063;-40
2023/10/07 12:37:20;;;;;;;27.05;4.50;;;20.50;99.90;;;;;;10529182;28;20044;-45
2023/10/07 12:42:25;;;;;;;13.10;3.25;;;21.50;99.90;;;;;;10525426;28;20131;-34
2023/10/07 12:47:29;;;;;;;19.10;4.00;;;21.40;99.90;;;;;;10529919;28;20055;-42
2023/10/07 12:52:31;;;;;;;17.27;4.80;;;21.30;99.90;;;;;;10528614;28;20047;-35
2023/10/07 12:57:36;;;;;;;16.63;4.32;;;21.20;99.90;;;;;;10524109;28;20185;-38
2023/10/07 13:02:37;;;;;;;12.52;3.90;;;21.60;99.90;;;;;;10514333;28;20047;-47
2023/10/07 13:07:42;;;;;;;9.30;3.63;;;21.30;99.90;;;;;;10518818;28;20560;-43
2023/10/07 13:12:46;;;;;;;19.77;4.72;;;21.30;99.90;;;;;;10520224;28;20068;-36
2023/10/07 13:17:49;;;;;;;17.42;3.88;;;21.20;99.90;;;;;;10519008;28;20040;-37
2023/10/07 13:22:51;;;;;;;16.88;4.88;;;21.70;99.90;;;;;;10510228;28;20053;-35
2023/10/07 13:27:56;;;;;;;15.95;3.88;;;21.40;99.90;;;;;;10515011;28;20082;-31
2023/10/07 13:32:58;;;;;;;17.40;4.32;;;21.70;99.90;;;;;;10525537;28;20044;-37
2023/10/07 13:38:01;;;;;;;17.13;3.85;;;21.20;99.90;;;;;;10527117;28;20477;-29
2023/10/07 13:43:06;;;;;;;32.15;5.22;;;21.30;99.90;;;;;;10520395;28;20044;-46
2023/10/07 13:48:10;;;;;;;21.75;4.40;;;21.60;99.90;;;;;;10514898;28;20048;-32
2023/10/07 13:53:15;;;;;;;21.10;4.03;;;22.00;99.90;;;;;;10522682;28;20058;-41
2023/10/07 13:58:19;;;;;;;18.08;4.03;;;21.90;99.90;;;;;;10509872;28;20048;-34
2023/10/07 14:03:22;;;;;;;19.15;3.65;;;21.50;99.90;;;;;;10536043;28;20045;-56
2023/10/07 14:08:28;;;;;;;14.90;3.78;;;21.90;99.90;;;;;;10525292;28;20101;-32
2023/10/07 14:13:33;;;;;;;16.98;4.63;;;22.20;99.90;;;;;;10524093;28;20485;-31
2023/10/07 14:18:38;;;;;;;23.85;4.35;;;22.30;99.90;;;;;;10515022;28;20439;-38
2023/10/07 14:23:40;;;;;;;25.42;4.97;;;21.90;99.90;;;;;;10527412;28;20043;-31
2023/10/07 14:28:44;;;;;;;17.85;3.80;;;21.70;99.90;;;;;;10521023;28;20499;-37
2023/10/07 14:33:46;;;;;;;13.40;3.25;;;21.80;99.90;;;;;;10523647;28;20114;-33
2023/10/07 14:38:51;;;;;;;22.73;4.30;;;21.20;99.90;;;;;;10523778;28;20055;-34
2023/10/07 14:43:56;;;;;;;20.48;4.80;;;21.10;99.90;;;;;;10523903;28;20040;-35
2023/10/07 14:48:58;;;;;;;23.38;4.85;;;21.00;99.90;;;;;;10523871;28;20143;-33
2023/10/07 14:54:00;;;;;;;25.45;5.30;;;20.80;99.90;;;;;;10521044;28;20292;-38
2023/10/07 14:59:04;;;;;;;18.60;4.82;;;21.00;99.90;;;;;;10523331;28;20051;-38
2023/10/07 15:04:06;;;;;;;26.05;4.55;;;21.80;99.90;;;;;;10513469;28;20047;-31
2023/10/07 15:09:08;;;;;;;24.55;4.72;;;21.10;99.90;;;;;;10519614;28;20470;-34
2023/10/07 15:14:11;;;;;;;20.05;5.05;;;21.20;99.90;;;;;;10512881;28;20528;-30
2023/10/07 15:19:14;;;;;;;27.65;5.65;;;20.90;99.90;;;;;;10521905;28;20097;-35
2023/10/07 15:24:15;;;;;;;32.42;5.20;;;20.60;99.90;;;;;;10502088;28;20036;-35
2023/10/07 15:29:19;;;;;;;26.27;5.07;;;20.20;99.90;;;;;;10532092;28;20082;-44
2023/10/07 15:34:20;;;;;;;28.65;6.40;;;20.40;99.90;;;;;;10517388;28;20048;-37
2023/10/07 15:39:23;;;;;;;34.65;5.32;;;20.70;99.90;;;;;;10523472;28;20125;-39
2023/10/07 15:44:26;;;;;;;25.20;5.35;;;20.40;99.90;;;;;;10502632;28;20040;-32
2023/10/07 15:49:28;;;;;;;24.70;4.75;;;20.40;99.90;;;;;;10506028;28;20079;-43
2023/10/07 15:54:30;;;;;;;21.98;4.65;;;20.30;99.90;;;;;;10502544;28;20045;-34
2023/10/07 15:59:33;;;;;;;25.13;5.03;;;20.10;99.90;;;;;;10509098;28;20447;-31
2023/10/07 16:04:35;;;;;;;29.13;4.32;;;20.20;99.90;;;;;;10520819;28;20044;-36
2023/10/07 16:09:36;;;;;;;25.40;4.97;;;19.80;99.90;;;;;;10514071;28;20048;-37
2023/10/07 16:14:42;;;;;;;23.60;5.10;;;20.00;99.90;;;;;;10518106;28;20134;-41
2023/10/07 16:19:44;;;;;;;25.05;4.70;;;20.00;99.90;;;;;;10524834;28;20127;-38
2023/10/07 16:24:45;;;;;;;22.38;4.45;;;20.10;99.90;;;;;;10528658;28;20477;-41
2023/10/07 16:29:50;;;;;;;26.13;5.82;;;19.80;99.90;;;;;;10529018;28;20074;-34
2023/10/07 16:34:52;;;;;;;27.60;5.82;;;19.90;99.90;;;;;;10527360;28;20415;-34
2023/10/07 16:39:57;;;;;;;31.40;6.53;;;19.80;99.90;;;;;;10520990;28;20160;-39
2023/10/07 16:45:02;;;;;;;36.72;5.40;;;19.60;99.90;;;;;;10515503;28;20101;-41
2023/10/07 16:50:08;;;;;;;24.25;6.10;;;20.90;99.90;;;;;;10516376;28;20489;-40
2023/10/07 16:55:12;;;;;;;21.70;4.57;;;20.10;99.90;;;;;;10516255;28;20046;-40
2023/10/07 17:00:19;;;;;;;18.13;4.30;;;19.90;99.90;;;;;;10513057;28;20051;-40
2023/10/07 17:05:20;;;;;;;21.60;4.90;;;20.20;99.90;;;;;;10518417;28;20055;-31
2023/10/07 17:10:22;;;;;;;24.38;6.00;;;19.80;99.90;;;;;;10522115;28;20043;-32
2023/10/07 17:15:25;;;;;;;26.20;4.70;;;19.70;99.90;;;;;;10519199;28;20060;-38
2023/10/07 17:20:27;;;;;;;26.77;5.35;;;20.00;99.90;;;;;;10530982;28;20049;-40
2023/10/07 17:25:29;;;;;;;26.58;5.15;;;20.50;99.90;;;;;;10520765;28;20485;-38
2023/10/07 17:30:32;;;;;;;38.97;6.32;;;20.00;99.90;;;;;;10518142;28;20058;-32
2023/10/07 17:35:35;;;;;;;31.88;5.90;;;19.30;99.90;;;;;;10534250;28;20488;-36
2023/10/07 17:40:37;;;;;;;;;;;19.20;99.90;;;;;;10538224;28;20044;-56
2023/10/07 17:45:40;;;;;;;19.52;5.40;;;19.00;99.90;;;;;;10528768;28;20020;-38
2023/10/07 17:50:41;;;;;;;26.27;5.30;;;19.40;99.90;;;;;;10516097;28;20055;-35
2023/10/07 17:55:44;;;;;;;31.17;5.57;;;18.70;99.90;;;;;;10516644;28;20126;-40
2023/10/07 18:00:48;;;;;;;25.52;5.20;;;19.00;99.90;;;;;;10523175;28;20484;-39
2023/10/07 18:05:49;;;;;;;28.55;5.07;;;19.60;99.90;;;;;;10518842;28;20133;-39
2023/10/07 18:10:51;;;;;;;28.85;5.40;;;19.50;99.90;;;;;;10525033;28;20404;-43
2023/10/07 18:15:54;;;;;;;30.52;6.57;;;18.90;99.90;;;;;;10524075;28;20058;-32
2023/10/07 18:20:57;;;;;;;23.02;6.07;;;19.10;99.90;;;;;;10526884;28;20071;-38
2023/10/07 18:25:58;;;;;;;;;;;19.10;99.90;;;;;;10529868;28;20480;-35
2023/10/07 18:31:02;;;;;;;21.63;4.55;;;19.50;99.90;;;;;;10518723;28;19968;-31
2023/10/07 18:36:04;;;;;;;37.00;5.22;;;19.20;99.90;;;;;;10522603;28;20645;-40
2023/10/07 18:41:05;;;;;;;30.52;5.18;;;19.60;99.90;;;;;;10520371;28;20127;-40
2023/10/07 18:46:09;;;;;;;29.92;5.88;;;19.40;99.90;;;;;;10519668;28;20048;-31
2023/10/07 18:51:11;;;;;;;34.60;6.68;;;18.90;99.90;;;;;;10512421;28;20036;-35
2023/10/07 18:56:13;;;;;;;25.27;4.55;;;19.10;99.90;;;;;;10516634;28;20071;-30
2023/10/07 19:01:17;;;;;;;20.05;5.57;;;19.10;99.90;;;;;;10506548;28;20507;-43
2023/10/07 19:06:18;;;;;;;19.92;3.90;;;19.20;99.90;;;;;;10508701;28;20044;-40
2023/10/07 19:11:21;;;;;;;22.92;4.25;;;20.80;99.90;;;;;;10523369;28;20138;-33
2023/10/07 19:16:24;;;;;;;25.10;4.75;;;20.70;99.90;;;;;;10523955;28;20043;-39
2023/10/07 19:21:27;;;;;;;22.88;4.70;;;20.80;99.90;;;;;;10521650;28;20072;-35
2023/10/07 19:26:28;;;;;;;17.50;4.32;;;20.70;99.90;;;;;;10521312;28;20040;-31
2023/10/07 19:31:32;;;;;;;19.85;4.07;;;21.20;99.90;;;;;;10514370;28;20048;-28
2023/10/07 19:36:34;;;;;;;25.02;5.53;;;21.10;99.90;;;;;;10513604;28;20048;-41
2023/10/07 19:41:36;;;;;;;25.60;5.22;;;20.90;99.90;;;;;;10516239;28;20059;-39
2023/10/07 19:46:39;;;;;;;21.70;4.85;;;20.90;99.90;;;;;;10532184;28;20429;-32
2023/10/07 19:51:41;;;;;;;26.23;5.80;;;21.10;99.90;;;;;;10517812;28;20049;-44
2023/10/07 19:56:43;;;;;;;23.30;5.43;;;20.80;99.90;;;;;;10507206;28;20141;-33
2023/10/07 20:01:46;;;;;;;24.45;5.50;;;21.10;99.90;;;;;;10521990;28;20449;-32
2023/10/07 20:06:48;;;;;;;28.10;6.15;;;20.40;99.90;;;;;;10530507;28;20086;-43
2023/10/07 20:11:49;;;;;;;20.58;4.65;;;20.50;99.90;;;;;;10533871;28;20060;-34
2023/10/07 20:16:53;;;;;;;30.70;5.25;;;20.50;99.90;;;;;;10529115;28;20087;-41
2023/10/07 20:21:54;;;;;;;23.17;4.70;;;20.50;99.90;;;;;;10521563;28;20066;-32
2023/10/07 20:26:56;;;;;;;24.30;5.45;;;20.80;99.90;;;;;;10522692;28;20044;-39
2023/10/07 20:32:00;;;;;;;26.67;5.05;;;20.70;99.90;;;;;;10525047;28;20064;-37
2023/10/07 20:37:01;;;;;;;16.90;4.43;;;20.60;99.90;;;;;;10523892;28;20052;-36
2023/10/07 20:42:03;;;;;;;26.60;4.75;;;20.90;99.90;;;;;;10526726;28;20083;-34
2023/10/07 20:47:08;;;;;;;24.35;5.53;;;20.70;99.90;;;;;;10530899;28;20093;-38
2023/10/07 20:52:10;;;;;;;20.23;4.53;;;20.70;99.90;;;;;;10512462;28;20147;-32
2023/10/07 20:57:14;;;;;;;19.30;5.28;;;20.70;99.90;;;;;;10527418;28;20048;-35
2023/10/07 21:02:17;;;;;;;27.48;4.85;;;21.10;99.90;;;;;;10524412;28;20052;-30
2023/10/07 21:07:19;;;;;;;28.05;5.28;;;20.90;99.90;;;;;;10521507;28;20048;-43
2023/10/07 21:12:21;;;;;;;16.40;3.88;;;21.00;99.90;;;;;;10517533;28;20055;-37
2023/10/07 21:17:24;;;;;;;25.58;6.20;;;21.10;99.90;;;;;;10533585;28;20079;-40
2023/10/07 21:22:27;;;;;;;21.70;4.82;;;20.90;99.90;;;;;;10523637;28;20075;-35
2023/10/07 21:27:29;;;;;;;18.27;3.58;;;21.50;99.90;;;;;;10522516;28;20417;-39
2023/10/07 21:32:34;;;;;;;21.52;4.32;;;21.20;99.90;;;;;;10512530;28;20036;-38
2023/10/07 21:37:37;;;;;;;26.10;4.95;;;21.10;99.90;;;;;;10520317;28;20052;-35
2023/10/07 21:42:39;;;;;;;19.13;4.10;;;21.60;99.90;;;;;;10504335;28;20205;-42
2023/10/07 21:47:42;;;;;;;26.00;5.57;;;21.20;99.90;;;;;;10505801;28;20047;-44
2023/10/07 21:52:44;;;;;;;23.88;3.97;;;21.20;99.90;;;;;;10513904;28;20048;-39
2023/10/07 21:57:47;;;;;;;17.77;4.63;;;20.90;99.90;;;;;;10510838;28;20068;-40
2023/10/07 22:02:50;;;;;;;16.98;4.15;;;21.40;99.90;;;;;;10519169;28;20142;-33
2023/10/07 22:07:52;;;;;;;19.90;4.03;;;20.90;99.90;;;;;;10504090;28;20072;-37
2023/10/07 22:12:54;;;;;;;15.70;4.55;;;21.20;99.90;;;;;;10516927;28;20158;-38
2023/10/07 22:17:58;;;;;;;18.60;4.43;;;21.20;99.90;;;;;;10526512;28;20083;-39
2023/10/07 22:22:59;;;;;;;19.02;4.50;;;20.90;99.90;;;;;;10520585;28;20129;-36
2023/10/07 22:28:05;;;;;;;15.73;3.97;;;20.70;99.90;;;;;;10509131;28;20051;-38
2023/10/07 22:33:15;;;;;;;23.15;5.15;;;20.70;99.90;;;;;;10532368;28;20044;-37
2023/10/07 22:38:18;;;;;;;25.67;5.53;;;20.80;99.90;;;;;;10531463;28;20438;-32
2023/10/07 22:43:20;;;;;;;16.65;4.18;;;20.70;99.90;;;;;;10527551;28;20068;-32
2023/10/07 22:48:27;;;;;;;19.63;4.13;;;20.90;99.90;;;;;;10507087;28;20102;-32
2023/10/07 22:53:35;;;;;;;26.70;5.32;;;20.60;99.90;;;;;;10523638;28;20094;-39
2023/10/07 22:58:38;;;;;;;14.70;4.03;;;20.50;99.90;;;;;;10528315;28;20065;-36
2023/10/07 23:03:48;;;;;;;20.63;5.60;;;21.10;99.90;;;;;;10523175;28;20036;-34
2023/10/07 23:08:59;;;;;;;15.73;4.55;;;20.60;99.90;;;;;;10518176;28;20079;-32
2023/10/07 23:14:06;;;;;;;23.50;5.38;;;20.90;99.90;;;;;;10519360;28;20060;-36
2023/10/07 23:19:09;;;;;;;15.18;3.72;;;20.50;99.90;;;;;;10525115;28;20044;-30
2023/10/07 23:24:41;;;;;;;13.00;3.58;;;20.60;99.90;;;;;;10537371;28;20135;-31
2023/10/07 23:29:43;;;;;;;26.75;6.18;;;20.70;99.90;;;;;;10525946;28;20067;-37
2023/10/07 23:34:50;;;;;;;13.23;3.70;;;20.60;99.90;;;;;;10523657;28;20063;-35
2023/10/07 23:39:57;;;;;;;16.17;3.78;;;20.90;99.90;;;;;;10525387;28;20486;-31
2023/10/07 23:45:06;;;;;;;13.65;4.80;;;21.10;99.90;;;;;;10530090;28;20044;-36
2023/10/07 23:50:15;;;;;;;11.98;3.50;;;20.70;99.90;;;;;;10541781;28;20100;-31
2023/10/07 23:55:27;;;;;;;18.75;4.82;;;20.90;99.90;;;;;;10527534;28;20553;-37
